sensor_id;sensor_type;location;lat;lon;timestamp;P1;durP1;ratioP1;P2;durP2;ratioP2
41885;SDS011;27567;43.084;25.616;2022-09-12T00:02:02;4.00;;;1.50;;
41885;SDS011;27567;43.084;25.616;2022-09-12T00:04:47;3.42;;;1.40;;
41885;SDS011;27567;43.084;25.616;2022-09-12T00:07:31;1.67;;;1.30;;
41885;SDS011;27567;43.084;25.616;2022-09-12T00:10:15;5.07;;;1.30;;
41885;SDS011;27567;43.084;25.616;2022-09-12T00:12:59;3.30;;;1.73;;
41885;SDS011;27567;43.084;25.616;2022-09-12T00:15:43;2.47;;;1.50;;
41885;SDS011;27567;43.084;25.616;2022-09-12T00:18:28;2.92;;;1.80;;
41885;SDS011;27567;43.084;25.616;2022-09-12T00:21:12;2.30;;;1.45;;
41885;SDS011;27567;43.084;25.616;2022-09-12T00:23:57;2.67;;;1.60;;
41885;SDS011;27567;43.084;25.616;2022-09-12T00:26:41;4.43;;;1.73;;
41885;SDS011;27567;43.084;25.616;2022-09-12T00:29:25;1.35;;;1.15;;
41885;SDS011;27567;43.084;25.616;2022-09-12T00:32:09;3.25;;;1.60;;
41885;SDS011;27567;43.084;25.616;2022-09-12T00:34:53;2.92;;;1.20;;
41885;SDS011;27567;43.084;25.616;2022-09-12T00:37:37;3.45;;;1.30;;
41885;SDS011;27567;43.084;25.616;2022-09-12T00:40:21;1.30;;;1.10;;
41885;SDS011;27567;43.084;25.616;2022-09-12T00:43:09;2.15;;;1.20;;
41885;SDS011;27567;43.084;25.616;2022-09-12T00:48:41;1.73;;;1.17;;
41885;SDS011;27567;43.084;25.616;2022-09-12T00:51:28;1.25;;;1.10;;
41885;SDS011;27567;43.084;25.616;2022-09-12T00:54:21;3.08;;;1.15;;
41885;SDS011;27567;43.084;25.616;2022-09-12T00:57:10;4.28;;;1.30;;
41885;SDS011;27567;43.084;25.616;2022-09-12T01:00:07;1.63;;;1.10;;
41885;SDS011;27567;43.084;25.616;2022-09-12T01:03:06;2.67;;;0.95;;
41885;SDS011;27567;43.084;25.616;2022-09-12T01:09:05;1.25;;;1.00;;
41885;SDS011;27567;43.084;25.616;2022-09-12T01:11:51;2.40;;;0.90;;
41885;SDS011;27567;43.084;25.616;2022-09-12T01:14:36;3.53;;;1.10;;
41885;SDS011;27567;43.084;25.616;2022-09-12T01:17:22;3.30;;;1.35;;
41885;SDS011;27567;43.084;25.616;2022-09-12T01:42:48;1.23;;;1.00;;
41885;SDS011;27567;43.084;25.616;2022-09-12T01:45:42;1.75;;;1.00;;
41885;SDS011;27567;43.084;25.616;2022-09-12T01:48:35;3.72;;;1.20;;
41885;SDS011;27567;43.084;25.616;2022-09-12T01:51:30;2.33;;;1.20;;
41885;SDS011;27567;43.084;25.616;2022-09-12T01:54:23;3.20;;;1.25;;
41885;SDS011;27567;43.084;25.616;2022-09-12T01:57:19;2.35;;;1.50;;
41885;SDS011;27567;43.084;25.616;2022-09-12T02:00:10;2.22;;;1.00;;
41885;SDS011;27567;43.084;25.616;2022-09-12T02:02:59;1.73;;;1.20;;
41885;SDS011;27567;43.084;25.616;2022-09-12T02:05:49;3.33;;;1.13;;
41885;SDS011;27567;43.084;25.616;2022-09-12T02:08:41;2.78;;;1.25;;
41885;SDS011;27567;43.084;25.616;2022-09-12T02:11:30;4.53;;;1.50;;
41885;SDS011;27567;43.084;25.616;2022-09-12T02:14:21;2.05;;;1.10;;
41885;SDS011;27567;43.084;25.616;2022-09-12T02:17:09;4.93;;;1.35;;
41885;SDS011;27567;43.084;25.616;2022-09-12T02:20:07;4.88;;;2.70;;
41885;SDS011;27567;43.084;25.616;2022-09-12T02:22:58;2.28;;;1.25;;
41885;SDS011;27567;43.084;25.616;2022-09-12T02:25:46;4.00;;;1.65;;
41885;SDS011;27567;43.084;25.616;2022-09-12T02:28:34;3.60;;;1.33;;
41885;SDS011;27567;43.084;25.616;2022-09-12T02:34:32;3.22;;;1.50;;
41885;SDS011;27567;43.084;25.616;2022-09-12T02:41:13;5.38;;;1.52;;
41885;SDS011;27567;43.084;25.616;2022-09-12T02:44:00;3.92;;;1.48;;
41885;SDS011;27567;43.084;25.616;2022-09-12T02:46:47;2.53;;;1.33;;
41885;SDS011;27567;43.084;25.616;2022-09-12T02:49:35;2.72;;;1.20;;
41885;SDS011;27567;43.084;25.616;2022-09-12T02:52:19;2.70;;;1.48;;
41885;SDS011;27567;43.084;25.616;2022-09-12T02:55:04;4.28;;;1.30;;
41885;SDS011;27567;43.084;25.616;2022-09-12T02:57:49;4.35;;;1.40;;
41885;SDS011;27567;43.084;25.616;2022-09-12T03:00:35;4.38;;;1.10;;
41885;SDS011;27567;43.084;25.616;2022-09-12T03:03:29;4.93;;;1.40;;
41885;SDS011;27567;43.084;25.616;2022-09-12T03:06:44;3.65;;;1.10;;
41885;SDS011;27567;43.084;25.616;2022-09-12T03:12:46;2.90;;;1.50;;
41885;SDS011;27567;43.084;25.616;2022-09-12T03:18:41;2.95;;;0.98;;
41885;SDS011;27567;43.084;25.616;2022-09-12T03:25:13;2.03;;;1.20;;
41885;SDS011;27567;43.084;25.616;2022-09-12T03:28:04;1.45;;;1.08;;
41885;SDS011;27567;43.084;25.616;2022-09-12T03:30:52;2.97;;;0.85;;
41885;SDS011;27567;43.084;25.616;2022-09-12T03:33:37;2.17;;;1.08;;
41885;SDS011;27567;43.084;25.616;2022-09-12T03:39:07;2.72;;;1.00;;
41885;SDS011;27567;43.084;25.616;2022-09-12T03:41:51;2.28;;;0.88;;
41885;SDS011;27567;43.084;25.616;2022-09-12T03:44:36;1.30;;;0.85;;
41885;SDS011;27567;43.084;25.616;2022-09-12T03:47:20;3.00;;;0.93;;
41885;SDS011;27567;43.084;25.616;2022-09-12T03:50:04;2.47;;;0.90;;
41885;SDS011;27567;43.084;25.616;2022-09-12T03:52:49;1.88;;;1.00;;
41885;SDS011;27567;43.084;25.616;2022-09-12T03:55:33;3.25;;;0.95;;
41885;SDS011;27567;43.084;25.616;2022-09-12T03:58:18;1.65;;;1.00;;
41885;SDS011;27567;43.084;25.616;2022-09-12T04:01:07;2.92;;;0.82;;
41885;SDS011;27567;43.084;25.616;2022-09-12T04:04:01;1.55;;;1.10;;
41885;SDS011;27567;43.084;25.616;2022-09-12T04:06:45;2.30;;;1.02;;
41885;SDS011;27567;43.084;25.616;2022-09-12T04:09:32;7.18;;;1.42;;
41885;SDS011;27567;43.084;25.616;2022-09-12T04:12:16;1.67;;;0.80;;
41885;SDS011;27567;43.084;25.616;2022-09-12T04:15:01;2.13;;;0.88;;
41885;SDS011;27567;43.084;25.616;2022-09-12T04:17:45;4.70;;;1.15;;
41885;SDS011;27567;43.084;25.616;2022-09-12T04:20:30;1.77;;;0.95;;
41885;SDS011;27567;43.084;25.616;2022-09-12T04:23:14;3.28;;;0.95;;
41885;SDS011;27567;43.084;25.616;2022-09-12T04:26:00;2.10;;;0.80;;
41885;SDS011;27567;43.084;25.616;2022-09-12T04:28:45;5.40;;;1.20;;
41885;SDS011;27567;43.084;25.616;2022-09-12T04:31:30;2.40;;;0.90;;
41885;SDS011;27567;43.084;25.616;2022-09-12T04:34:15;2.08;;;1.42;;
41885;SDS011;27567;43.084;25.616;2022-09-12T04:36:59;4.97;;;0.90;;
41885;SDS011;27567;43.084;25.616;2022-09-12T04:39:43;2.70;;;1.25;;
41885;SDS011;27567;43.084;25.616;2022-09-12T04:42:28;2.17;;;0.95;;
41885;SDS011;27567;43.084;25.616;2022-09-12T04:45:12;3.03;;;1.08;;
41885;SDS011;27567;43.084;25.616;2022-09-12T04:47:59;6.70;;;0.98;;
41885;SDS011;27567;43.084;25.616;2022-09-12T04:50:44;2.10;;;1.05;;
41885;SDS011;27567;43.084;25.616;2022-09-12T04:53:28;4.78;;;1.00;;
41885;SDS011;27567;43.084;25.616;2022-09-12T04:56:12;4.45;;;1.20;;
41885;SDS011;27567;43.084;25.616;2022-09-12T04:58:57;2.63;;;1.02;;
41885;SDS011;27567;43.084;25.616;2022-09-12T05:01:43;2.92;;;0.93;;
41885;SDS011;27567;43.084;25.616;2022-09-12T05:04:28;2.65;;;0.90;;
41885;SDS011;27567;43.084;25.616;2022-09-12T05:07:11;1.42;;;0.90;;
41885;SDS011;27567;43.084;25.616;2022-09-12T05:09:55;3.65;;;1.05;;
41885;SDS011;27567;43.084;25.616;2022-09-12T05:12:39;2.33;;;1.17;;
41885;SDS011;27567;43.084;25.616;2022-09-12T05:15:23;3.65;;;1.38;;
41885;SDS011;27567;43.084;25.616;2022-09-12T05:18:07;3.08;;;0.85;;
41885;SDS011;27567;43.084;25.616;2022-09-12T05:20:52;5.35;;;1.20;;
41885;SDS011;27567;43.084;25.616;2022-09-12T05:23:36;4.75;;;0.80;;
41885;SDS011;27567;43.084;25.616;2022-09-12T05:26:21;3.55;;;1.00;;
41885;SDS011;27567;43.084;25.616;2022-09-12T05:29:06;2.35;;;1.42;;
41885;SDS011;27567;43.084;25.616;2022-09-12T05:31:50;6.65;;;0.73;;
41885;SDS011;27567;43.084;25.616;2022-09-12T05:34:34;1.48;;;0.90;;
41885;SDS011;27567;43.084;25.616;2022-09-12T05:37:18;2.10;;;0.90;;
41885;SDS011;27567;43.084;25.616;2022-09-12T05:40:02;5.30;;;0.75;;
41885;SDS011;27567;43.084;25.616;2022-09-12T05:42:50;5.22;;;0.98;;
41885;SDS011;27567;43.084;25.616;2022-09-12T05:45:34;1.92;;;1.02;;
41885;SDS011;27567;43.084;25.616;2022-09-12T05:48:18;3.90;;;1.20;;
41885;SDS011;27567;43.084;25.616;2022-09-12T05:51:03;2.25;;;1.08;;
41885;SDS011;27567;43.084;25.616;2022-09-12T05:53:56;3.72;;;1.77;;
41885;SDS011;27567;43.084;25.616;2022-09-12T05:56:42;2.08;;;0.93;;
41885;SDS011;27567;43.084;25.616;2022-09-12T05:59:26;1.02;;;0.75;;
41885;SDS011;27567;43.084;25.616;2022-09-12T06:02:11;5.53;;;1.00;;
41885;SDS011;27567;43.084;25.616;2022-09-12T06:04:55;3.90;;;0.80;;
41885;SDS011;27567;43.084;25.616;2022-09-12T06:07:40;2.13;;;0.90;;
41885;SDS011;27567;43.084;25.616;2022-09-12T06:10:24;3.38;;;0.80;;
41885;SDS011;27567;43.084;25.616;2022-09-12T06:13:09;2.50;;;0.90;;
41885;SDS011;27567;43.084;25.616;2022-09-12T06:15:52;4.70;;;0.90;;
41885;SDS011;27567;43.084;25.616;2022-09-12T06:18:37;3.55;;;0.98;;
41885;SDS011;27567;43.084;25.616;2022-09-12T06:21:22;3.15;;;0.70;;
41885;SDS011;27567;43.084;25.616;2022-09-12T06:24:08;1.50;;;0.80;;
41885;SDS011;27567;43.084;25.616;2022-09-12T06:26:52;3.92;;;0.80;;
41885;SDS011;27567;43.084;25.616;2022-09-12T06:29:36;2.17;;;1.38;;
41885;SDS011;27567;43.084;25.616;2022-09-12T06:32:20;4.38;;;0.60;;
41885;SDS011;27567;43.084;25.616;2022-09-12T06:35:04;2.35;;;1.17;;
41885;SDS011;27567;43.084;25.616;2022-09-12T06:37:49;3.38;;;1.00;;
41885;SDS011;27567;43.084;25.616;2022-09-12T06:40:33;2.42;;;0.90;;
41885;SDS011;27567;43.084;25.616;2022-09-12T06:43:17;1.15;;;0.52;;
41885;SDS011;27567;43.084;25.616;2022-09-12T06:46:03;1.98;;;0.90;;
41885;SDS011;27567;43.084;25.616;2022-09-12T06:48:48;1.10;;;0.95;;
41885;SDS011;27567;43.084;25.616;2022-09-12T06:51:33;0.88;;;0.75;;
41885;SDS011;27567;43.084;25.616;2022-09-12T06:54:18;3.83;;;0.88;;
41885;SDS011;27567;43.084;25.616;2022-09-12T06:57:02;2.35;;;0.82;;
41885;SDS011;27567;43.084;25.616;2022-09-12T06:59:46;3.78;;;0.90;;
41885;SDS011;27567;43.084;25.616;2022-09-12T07:02:30;5.32;;;0.63;;
41885;SDS011;27567;43.084;25.616;2022-09-12T07:05:14;0.73;;;0.60;;
41885;SDS011;27567;43.084;25.616;2022-09-12T07:07:59;2.80;;;0.80;;
41885;SDS011;27567;43.084;25.616;2022-09-12T07:10:43;2.58;;;0.50;;
41885;SDS011;27567;43.084;25.616;2022-09-12T07:13:28;3.00;;;0.70;;
41885;SDS011;27567;43.084;25.616;2022-09-12T07:16:12;4.25;;;0.68;;
41885;SDS011;27567;43.084;25.616;2022-09-12T07:18:57;1.38;;;0.80;;
41885;SDS011;27567;43.084;25.616;2022-09-12T07:21:43;2.58;;;0.65;;
41885;SDS011;27567;43.084;25.616;2022-09-12T07:24:30;1.58;;;0.50;;
41885;SDS011;27567;43.084;25.616;2022-09-12T07:27:14;1.85;;;0.70;;
41885;SDS011;27567;43.084;25.616;2022-09-12T07:29:58;3.35;;;0.70;;
41885;SDS011;27567;43.084;25.616;2022-09-12T07:32:42;2.50;;;0.75;;
41885;SDS011;27567;43.084;25.616;2022-09-12T07:35:26;4.82;;;0.90;;
41885;SDS011;27567;43.084;25.616;2022-09-12T07:38:11;0.60;;;0.50;;
41885;SDS011;27567;43.084;25.616;2022-09-12T07:40:55;1.23;;;0.50;;
41885;SDS011;27567;43.084;25.616;2022-09-12T07:43:39;1.35;;;0.50;;
41885;SDS011;27567;43.084;25.616;2022-09-12T07:46:24;0.82;;;0.60;;
41885;SDS011;27567;43.084;25.616;2022-09-12T07:49:10;0.80;;;0.60;;
41885;SDS011;27567;43.084;25.616;2022-09-12T07:51:55;1.48;;;0.65;;
41885;SDS011;27567;43.084;25.616;2022-09-12T07:54:39;3.15;;;0.70;;
41885;SDS011;27567;43.084;25.616;2022-09-12T07:57:23;0.98;;;0.50;;
41885;SDS011;27567;43.084;25.616;2022-09-12T08:00:08;0.70;;;0.50;;
41885;SDS011;27567;43.084;25.616;2022-09-12T08:02:53;4.57;;;0.60;;
41885;SDS011;27567;43.084;25.616;2022-09-12T08:05:38;0.63;;;0.50;;
41885;SDS011;27567;43.084;25.616;2022-09-12T08:08:21;0.57;;;0.50;;
41885;SDS011;27567;43.084;25.616;2022-09-12T08:11:07;2.35;;;0.60;;
41885;SDS011;27567;43.084;25.616;2022-09-12T08:13:53;2.97;;;0.60;;
41885;SDS011;27567;43.084;25.616;2022-09-12T08:16:39;0.50;;;0.50;;
41885;SDS011;27567;43.084;25.616;2022-09-12T08:19:23;0.77;;;0.50;;
41885;SDS011;27567;43.084;25.616;2022-09-12T08:22:07;0.73;;;0.60;;
41885;SDS011;27567;43.084;25.616;2022-09-12T08:24:51;2.25;;;0.77;;
41885;SDS011;27567;43.084;25.616;2022-09-12T08:27:36;2.33;;;0.73;;
41885;SDS011;27567;43.084;25.616;2022-09-12T08:30:20;1.10;;;0.70;;
41885;SDS011;27567;43.084;25.616;2022-09-12T08:33:04;1.58;;;0.60;;
41885;SDS011;27567;43.084;25.616;2022-09-12T08:35:49;0.75;;;0.57;;
41885;SDS011;27567;43.084;25.616;2022-09-12T08:38:34;2.25;;;0.52;;
41885;SDS011;27567;43.084;25.616;2022-09-12T08:47:26;2.10;;;0.60;;
41885;SDS011;27567;43.084;25.616;2022-09-12T08:50:16;4.75;;;0.73;;
41885;SDS011;27567;43.084;25.616;2022-09-12T08:53:11;2.40;;;0.52;;
41885;SDS011;27567;43.084;25.616;2022-09-12T08:55:59;1.20;;;0.65;;
41885;SDS011;27567;43.084;25.616;2022-09-12T08:58:44;1.38;;;0.70;;
41885;SDS011;27567;43.084;25.616;2022-09-12T09:10:20;0.70;;;0.52;;
41885;SDS011;27567;43.084;25.616;2022-09-12T09:16:37;0.80;;;0.60;;
41885;SDS011;27567;43.084;25.616;2022-09-12T09:19:30;4.97;;;0.90;;
41885;SDS011;27567;43.084;25.616;2022-09-12T09:22:32;0.77;;;0.77;;
41885;SDS011;27567;43.084;25.616;2022-09-12T09:28:09;0.60;;;0.60;;
41885;SDS011;27567;43.084;25.616;2022-09-12T09:30:55;2.85;;;0.80;;
41885;SDS011;27567;43.084;25.616;2022-09-12T09:33:41;1.30;;;0.88;;
41885;SDS011;27567;43.084;25.616;2022-09-12T09:36:36;5.78;;;1.30;;
41885;SDS011;27567;43.084;25.616;2022-09-12T09:43:20;7.70;;;1.00;;
41885;SDS011;27567;43.084;25.616;2022-09-12T09:46:06;6.60;;;1.67;;
41885;SDS011;27567;43.084;25.616;2022-09-12T09:48:50;4.03;;;1.50;;
41885;SDS011;27567;43.084;25.616;2022-09-12T09:51:37;2.90;;;1.20;;
41885;SDS011;27567;43.084;25.616;2022-09-12T09:54:23;4.03;;;1.63;;
41885;SDS011;27567;43.084;25.616;2022-09-12T09:57:37;2.55;;;1.77;;
41885;SDS011;27567;43.084;25.616;2022-09-12T10:06:01;2.63;;;1.90;;
41885;SDS011;27567;43.084;25.616;2022-09-12T10:08:50;1.48;;;0.90;;
41885;SDS011;27567;43.084;25.616;2022-09-12T10:11:38;4.90;;;1.20;;
41885;SDS011;27567;43.084;25.616;2022-09-12T10:14:25;5.07;;;1.15;;
41885;SDS011;27567;43.084;25.616;2022-09-12T10:17:25;0.70;;;0.60;;
41885;SDS011;27567;43.084;25.616;2022-09-12T10:20:29;1.35;;;0.70;;
41885;SDS011;27567;43.084;25.616;2022-09-12T10:23:50;2.35;;;0.60;;
41885;SDS011;27567;43.084;25.616;2022-09-12T10:26:30;0.75;;;0.50;;
41885;SDS011;27567;43.084;25.616;2022-09-12T10:29:20;5.28;;;0.77;;
41885;SDS011;27567;43.084;25.616;2022-09-12T10:32:48;2.75;;;0.90;;
41885;SDS011;27567;43.084;25.616;2022-09-12T10:35:30;4.15;;;0.80;;
41885;SDS011;27567;43.084;25.616;2022-09-12T10:38:26;1.07;;;0.50;;
41885;SDS011;27567;43.084;25.616;2022-09-12T10:41:13;1.60;;;0.90;;
41885;SDS011;27567;43.084;25.616;2022-09-12T10:44:11;2.35;;;0.90;;
41885;SDS011;27567;43.084;25.616;2022-09-12T10:46:59;2.45;;;0.75;;
41885;SDS011;27567;43.084;25.616;2022-09-12T10:50:19;1.67;;;0.60;;
41885;SDS011;27567;43.084;25.616;2022-09-12T10:56:02;1.30;;;0.73;;
41885;SDS011;27567;43.084;25.616;2022-09-12T11:11:42;1.23;;;0.80;;
41885;SDS011;27567;43.084;25.616;2022-09-12T11:23:46;3.42;;;1.00;;
41885;SDS011;27567;43.084;25.616;2022-09-12T11:30:06;7.07;;;0.82;;
41885;SDS011;27567;43.084;25.616;2022-09-12T11:35:59;5.47;;;1.08;;
41885;SDS011;27567;43.084;25.616;2022-09-12T11:41:59;1.77;;;0.90;;
41885;SDS011;27567;43.084;25.616;2022-09-12T11:44:51;2.45;;;1.00;;
41885;SDS011;27567;43.084;25.616;2022-09-12T11:47:48;2.45;;;0.88;;
41885;SDS011;27567;43.084;25.616;2022-09-12T11:50:36;1.20;;;0.85;;
41885;SDS011;27567;43.084;25.616;2022-09-12T11:53:25;4.20;;;1.30;;
41885;SDS011;27567;43.084;25.616;2022-09-12T11:56:17;2.25;;;0.82;;
41885;SDS011;27567;43.084;25.616;2022-09-12T11:59:08;4.95;;;0.98;;
41885;SDS011;27567;43.084;25.616;2022-09-12T12:02:10;2.85;;;1.17;;
41885;SDS011;27567;43.084;25.616;2022-09-12T12:08:03;1.48;;;1.13;;
41885;SDS011;27567;43.084;25.616;2022-09-12T12:10:50;1.73;;;1.15;;
41885;SDS011;27567;43.084;25.616;2022-09-12T12:13:40;1.42;;;1.20;;
41885;SDS011;27567;43.084;25.616;2022-09-12T12:16:29;4.28;;;1.33;;
41885;SDS011;27567;43.084;25.616;2022-09-12T12:19:55;1.35;;;1.20;;
41885;SDS011;27567;43.084;25.616;2022-09-12T12:22:39;1.27;;;1.10;;
41885;SDS011;27567;43.084;25.616;2022-09-12T12:25:39;2.05;;;1.20;;
41885;SDS011;27567;43.084;25.616;2022-09-12T12:31:24;1.70;;;1.35;;
41885;SDS011;27567;43.084;25.616;2022-09-12T12:34:19;2.28;;;1.42;;
41885;SDS011;27567;43.084;25.616;2022-09-12T12:40:17;1.77;;;1.60;;
41885;SDS011;27567;43.084;25.616;2022-09-12T12:43:13;3.08;;;2.05;;
41885;SDS011;27567;43.084;25.616;2022-09-12T12:46:15;1.83;;;1.63;;
41885;SDS011;27567;43.084;25.616;2022-09-12T12:52:00;10.40;;;1.52;;
41885;SDS011;27567;43.084;25.616;2022-09-12T13:05:51;10.60;;;1.77;;
41885;SDS011;27567;43.084;25.616;2022-09-12T13:08:43;1.92;;;1.77;;
41885;SDS011;27567;43.084;25.616;2022-09-12T13:11:42;1.77;;;1.60;;
41885;SDS011;27567;43.084;25.616;2022-09-12T13:17:32;5.03;;;1.73;;
41885;SDS011;27567;43.084;25.616;2022-09-12T13:20:23;1.70;;;1.40;;
41885;SDS011;27567;43.084;25.616;2022-09-12T13:23:28;1.80;;;1.40;;
41885;SDS011;27567;43.084;25.616;2022-09-12T13:26:23;2.75;;;2.00;;
41885;SDS011;27567;43.084;25.616;2022-09-12T13:29:13;2.45;;;1.40;;
41885;SDS011;27567;43.084;25.616;2022-09-12T13:31:58;4.70;;;2.53;;
41885;SDS011;27567;43.084;25.616;2022-09-12T13:38:21;9.38;;;4.43;;
41885;SDS011;27567;43.084;25.616;2022-09-12T13:44:07;3.25;;;1.70;;
41885;SDS011;27567;43.084;25.616;2022-09-12T13:46:54;2.65;;;1.75;;
41885;SDS011;27567;43.084;25.616;2022-09-12T13:49:42;2.30;;;1.45;;
41885;SDS011;27567;43.084;25.616;2022-09-12T13:52:31;1.90;;;1.70;;
41885;SDS011;27567;43.084;25.616;2022-09-12T13:55:22;4.65;;;1.83;;
41885;SDS011;27567;43.084;25.616;2022-09-12T13:58:22;6.63;;;2.00;;
41885;SDS011;27567;43.084;25.616;2022-09-12T14:01:17;2.35;;;1.90;;
41885;SDS011;27567;43.084;25.616;2022-09-12T14:04:09;4.93;;;1.90;;
41885;SDS011;27567;43.084;25.616;2022-09-12T14:07:20;4.50;;;2.10;;
41885;SDS011;27567;43.084;25.616;2022-09-12T14:10:12;4.43;;;2.00;;
41885;SDS011;27567;43.084;25.616;2022-09-12T14:13:02;5.13;;;2.35;;
41885;SDS011;27567;43.084;25.616;2022-09-12T14:15:53;12.68;;;2.40;;
41885;SDS011;27567;43.084;25.616;2022-09-12T14:18:38;3.67;;;2.30;;
41885;SDS011;27567;43.084;25.616;2022-09-12T14:21:35;3.17;;;2.13;;
41885;SDS011;27567;43.084;25.616;2022-09-12T14:24:20;2.55;;;2.35;;
41885;SDS011;27567;43.084;25.616;2022-09-12T14:27:08;4.13;;;2.30;;
41885;SDS011;27567;43.084;25.616;2022-09-12T14:30:38;5.95;;;2.55;;
41885;SDS011;27567;43.084;25.616;2022-09-12T14:39:23;3.83;;;2.30;;
41885;SDS011;27567;43.084;25.616;2022-09-12T14:42:15;3.67;;;2.70;;
41885;SDS011;27567;43.084;25.616;2022-09-12T14:45:08;3.70;;;2.10;;
41885;SDS011;27567;43.084;25.616;2022-09-12T14:47:59;4.05;;;2.20;;
41885;SDS011;27567;43.084;25.616;2022-09-12T14:50:43;8.13;;;2.88;;
41885;SDS011;27567;43.084;25.616;2022-09-12T14:53:33;4.43;;;2.47;;
41885;SDS011;27567;43.084;25.616;2022-09-12T14:56:20;2.70;;;2.50;;
41885;SDS011;27567;43.084;25.616;2022-09-12T15:08:00;11.27;;;3.13;;
41885;SDS011;27567;43.084;25.616;2022-09-12T15:10:45;6.57;;;2.42;;
41885;SDS011;27567;43.084;25.616;2022-09-12T15:13:29;4.40;;;2.95;;
41885;SDS011;27567;43.084;25.616;2022-09-12T15:16:23;4.40;;;2.92;;
41885;SDS011;27567;43.084;25.616;2022-09-12T15:19:07;4.38;;;2.85;;
41885;SDS011;27567;43.084;25.616;2022-09-12T15:21:52;7.38;;;2.78;;
41885;SDS011;27567;43.084;25.616;2022-09-12T15:24:36;4.50;;;2.95;;
41885;SDS011;27567;43.084;25.616;2022-09-12T15:27:22;4.90;;;3.13;;
41885;SDS011;27567;43.084;25.616;2022-09-12T15:30:08;3.30;;;3.00;;
41885;SDS011;27567;43.084;25.616;2022-09-12T15:32:54;5.15;;;2.90;;
41885;SDS011;27567;43.084;25.616;2022-09-12T15:35:38;3.05;;;2.80;;
41885;SDS011;27567;43.084;25.616;2022-09-12T15:38:25;5.38;;;2.90;;
41885;SDS011;27567;43.084;25.616;2022-09-12T15:41:14;5.72;;;3.10;;
41885;SDS011;27567;43.084;25.616;2022-09-12T15:44:00;3.33;;;3.03;;
41885;SDS011;27567;43.084;25.616;2022-09-12T15:46:46;4.35;;;3.05;;
41885;SDS011;27567;43.084;25.616;2022-09-12T15:49:30;8.32;;;2.88;;
41885;SDS011;27567;43.084;25.616;2022-09-12T15:52:15;3.00;;;2.70;;
41885;SDS011;27567;43.084;25.616;2022-09-12T15:54:59;4.22;;;2.38;;
41885;SDS011;27567;43.084;25.616;2022-09-12T15:57:44;5.47;;;2.40;;
41885;SDS011;27567;43.084;25.616;2022-09-12T16:00:28;3.80;;;2.17;;
41885;SDS011;27567;43.084;25.616;2022-09-12T16:03:22;3.30;;;2.15;;
41885;SDS011;27567;43.084;25.616;2022-09-12T16:06:07;9.82;;;2.78;;
41885;SDS011;27567;43.084;25.616;2022-09-12T16:08:53;3.20;;;2.15;;
41885;SDS011;27567;43.084;25.616;2022-09-12T16:11:37;2.83;;;2.33;;
41885;SDS011;27567;43.084;25.616;2022-09-12T16:14:21;5.25;;;2.42;;
41885;SDS011;27567;43.084;25.616;2022-09-12T16:17:05;5.13;;;2.05;;
41885;SDS011;27567;43.084;25.616;2022-09-12T16:19:50;5.43;;;2.25;;
41885;SDS011;27567;43.084;25.616;2022-09-12T16:22:34;3.60;;;2.15;;
41885;SDS011;27567;43.084;25.616;2022-09-12T16:25:18;3.63;;;2.50;;
41885;SDS011;27567;43.084;25.616;2022-09-12T16:28:03;6.53;;;2.78;;
41885;SDS011;27567;43.084;25.616;2022-09-12T16:30:59;4.50;;;3.17;;
41885;SDS011;27567;43.084;25.616;2022-09-12T16:33:47;3.90;;;2.92;;
41885;SDS011;27567;43.084;25.616;2022-09-12T16:36:31;5.63;;;2.97;;
41885;SDS011;27567;43.084;25.616;2022-09-12T16:39:15;7.20;;;3.55;;
41885;SDS011;27567;43.084;25.616;2022-09-12T16:41:59;6.53;;;3.50;;
41885;SDS011;27567;43.084;25.616;2022-09-12T16:44:46;4.45;;;4.03;;
41885;SDS011;27567;43.084;25.616;2022-09-12T16:47:31;4.07;;;3.67;;
41885;SDS011;27567;43.084;25.616;2022-09-12T16:50:15;5.10;;;4.05;;
41885;SDS011;27567;43.084;25.616;2022-09-12T16:52:59;6.75;;;3.70;;
41885;SDS011;27567;43.084;25.616;2022-09-12T16:55:47;13.80;;;5.05;;
41885;SDS011;27567;43.084;25.616;2022-09-12T16:58:32;4.30;;;3.55;;
41885;SDS011;27567;43.084;25.616;2022-09-12T17:01:21;5.72;;;3.90;;
41885;SDS011;27567;43.084;25.616;2022-09-12T17:04:06;6.13;;;3.38;;
41885;SDS011;27567;43.084;25.616;2022-09-12T17:06:50;7.53;;;3.28;;
41885;SDS011;27567;43.084;25.616;2022-09-12T17:09:34;4.47;;;2.88;;
41885;SDS011;27567;43.084;25.616;2022-09-12T17:12:18;3.63;;;2.97;;
41885;SDS011;27567;43.084;25.616;2022-09-12T17:15:02;5.10;;;3.20;;
41885;SDS011;27567;43.084;25.616;2022-09-12T17:17:47;3.80;;;2.80;;
41885;SDS011;27567;43.084;25.616;2022-09-12T17:20:33;4.82;;;2.80;;
41885;SDS011;27567;43.084;25.616;2022-09-12T17:23:18;4.38;;;2.88;;
41885;SDS011;27567;43.084;25.616;2022-09-12T17:26:02;3.63;;;3.22;;
41885;SDS011;27567;43.084;25.616;2022-09-12T17:28:46;4.13;;;2.85;;
41885;SDS011;27567;43.084;25.616;2022-09-12T17:31:30;5.93;;;3.00;;
41885;SDS011;27567;43.084;25.616;2022-09-12T17:34:15;6.63;;;2.50;;
41885;SDS011;27567;43.084;25.616;2022-09-12T17:37:00;3.30;;;2.97;;
41885;SDS011;27567;43.084;25.616;2022-09-12T17:39:44;6.38;;;3.20;;
41885;SDS011;27567;43.084;25.616;2022-09-12T17:42:29;3.78;;;3.30;;
41885;SDS011;27567;43.084;25.616;2022-09-12T17:45:14;4.47;;;3.10;;
41885;SDS011;27567;43.084;25.616;2022-09-12T17:47:58;7.45;;;3.28;;
41885;SDS011;27567;43.084;25.616;2022-09-12T17:50:42;7.30;;;3.08;;
41885;SDS011;27567;43.084;25.616;2022-09-12T17:53:27;4.95;;;3.05;;
41885;SDS011;27567;43.084;25.616;2022-09-12T17:56:11;4.60;;;3.30;;
41885;SDS011;27567;43.084;25.616;2022-09-12T17:58:56;6.88;;;3.47;;
41885;SDS011;27567;43.084;25.616;2022-09-12T18:01:41;6.22;;;3.40;;
41885;SDS011;27567;43.084;25.616;2022-09-12T18:04:44;4.07;;;2.70;;
41885;SDS011;27567;43.084;25.616;2022-09-12T18:07:29;4.07;;;3.22;;
41885;SDS011;27567;43.084;25.616;2022-09-12T18:10:12;7.97;;;3.00;;
41885;SDS011;27567;43.084;25.616;2022-09-12T18:12:56;4.40;;;3.60;;
41885;SDS011;27567;43.084;25.616;2022-09-12T18:15:41;5.50;;;3.40;;
41885;SDS011;27567;43.084;25.616;2022-09-12T18:18:25;6.38;;;3.13;;
41885;SDS011;27567;43.084;25.616;2022-09-12T18:21:11;3.60;;;2.95;;
41885;SDS011;27567;43.084;25.616;2022-09-12T18:23:56;5.22;;;2.80;;
41885;SDS011;27567;43.084;25.616;2022-09-12T18:26:44;4.75;;;2.47;;
41885;SDS011;27567;43.084;25.616;2022-09-12T18:29:28;6.03;;;2.90;;
41885;SDS011;27567;43.084;25.616;2022-09-12T18:32:13;5.00;;;2.63;;
41885;SDS011;27567;43.084;25.616;2022-09-12T18:34:57;3.38;;;2.45;;
41885;SDS011;27567;43.084;25.616;2022-09-12T18:37:41;9.77;;;2.90;;
41885;SDS011;27567;43.084;25.616;2022-09-12T18:40:27;3.80;;;2.70;;
41885;SDS011;27567;43.084;25.616;2022-09-12T18:43:11;6.00;;;2.17;;
41885;SDS011;27567;43.084;25.616;2022-09-12T18:46:01;2.83;;;2.38;;
41885;SDS011;27567;43.084;25.616;2022-09-12T18:48:49;3.65;;;2.60;;
41885;SDS011;27567;43.084;25.616;2022-09-12T18:51:33;5.05;;;2.35;;
41885;SDS011;27567;43.084;25.616;2022-09-12T18:54:19;3.65;;;1.90;;
41885;SDS011;27567;43.084;25.616;2022-09-12T18:57:03;2.47;;;1.85;;
41885;SDS011;27567;43.084;25.616;2022-09-12T18:59:47;2.40;;;1.70;;
41885;SDS011;27567;43.084;25.616;2022-09-12T19:02:31;3.00;;;2.08;;
41885;SDS011;27567;43.084;25.616;2022-09-12T19:05:15;6.90;;;2.15;;
41885;SDS011;27567;43.084;25.616;2022-09-12T19:07:58;2.20;;;2.00;;
41885;SDS011;27567;43.084;25.616;2022-09-12T19:10:43;6.97;;;2.55;;
41885;SDS011;27567;43.084;25.616;2022-09-12T19:13:27;3.30;;;2.47;;
41885;SDS011;27567;43.084;25.616;2022-09-12T19:16:13;4.40;;;1.90;;